createdAt,value
2023-02-14T00:01:10.831Z,17.10
2023-02-14T00:03:38.039Z,15.10
2023-02-14T00:06:09.197Z,16.00
2023-02-14T00:08:36.817Z,17.43
2023-02-14T00:11:05.492Z,16.27
2023-02-14T00:13:32.653Z,16.53
2023-02-14T00:15:59.508Z,15.67
2023-02-14T00:18:46.760Z,17.00
2023-02-14T00:21:13.424Z,14.40
2023-02-14T00:23:40.655Z,14.90
2023-02-14T00:26:14.025Z,19.40
2023-02-14T00:28:40.691Z,15.67
2023-02-14T00:31:07.475Z,16.43
2023-02-14T00:33:34.309Z,16.27
2023-02-14T00:36:07.410Z,20.27
2023-02-14T00:38:35.048Z,16.77
2023-02-14T00:41:02.413Z,14.93
2023-02-14T00:43:29.726Z,14.10
2023-02-14T00:45:56.909Z,13.57
2023-02-14T00:48:23.763Z,15.27
2023-02-14T00:50:50.430Z,15.40
2023-02-14T00:53:17.319Z,19.27
2023-02-14T00:55:46.660Z,18.03
2023-02-14T00:58:13.454Z,15.67
2023-02-14T01:00:40.359Z,16.13
2023-02-14T01:03:07.431Z,17.90
2023-02-14T01:05:34.176Z,18.23
2023-02-14T01:08:00.865Z,19.83
2023-02-14T01:10:27.684Z,19.37
2023-02-14T01:12:54.468Z,15.43
2023-02-14T01:15:21.224Z,15.97
2023-02-14T01:17:47.912Z,16.47
2023-02-14T01:20:14.808Z,19.13
2023-02-14T01:22:42.400Z,15.67
2023-02-14T01:25:09.312Z,20.33
2023-02-14T01:27:37.544Z,15.13
2023-02-14T01:30:05.493Z,15.87
2023-02-14T01:32:35.775Z,19.60
2023-02-14T01:35:02.617Z,19.93
2023-02-14T01:37:31.253Z,25.33
2023-02-14T01:39:59.110Z,22.00
2023-02-14T01:42:25.962Z,20.17
2023-02-14T01:45:07.054Z,19.37
2023-02-14T01:47:38.964Z,15.63
2023-02-14T01:50:33.577Z,21.13
2023-02-14T01:53:05.389Z,18.43
2023-02-14T01:55:36.392Z,17.83
2023-02-14T01:58:11.830Z,18.00
2023-02-14T02:00:59.181Z,18.00
2023-02-14T02:03:33.160Z,18.53
2023-02-14T02:06:31.011Z,19.73
2023-02-14T02:09:20.576Z,18.60
2023-02-14T02:11:49.828Z,20.33
2023-02-14T02:14:19.999Z,18.37
2023-02-14T02:17:27.608Z,16.87
2023-02-14T02:20:13.412Z,18.83
2023-02-14T02:23:05.727Z,19.10
2023-02-14T02:26:10.530Z,21.00
2023-02-14T02:28:49.457Z,19.90
2023-02-14T02:31:38.382Z,18.53
2023-02-14T02:34:50.600Z,21.83
2023-02-14T02:37:41.791Z,18.10
2023-02-14T02:40:39.839Z,21.87
2023-02-14T02:43:35.588Z,20.50
2023-02-14T02:46:39.123Z,20.27
2023-02-14T02:49:52.086Z,24.77
2023-02-14T02:53:03.122Z,24.70
2023-02-14T02:55:59.631Z,24.13
2023-02-14T02:58:32.589Z,25.50
2023-02-14T03:01:04.519Z,28.80
2023-02-14T03:03:52.065Z,27.60
2023-02-14T03:06:20.820Z,30.80
2023-02-14T03:08:47.622Z,31.70
2023-02-14T03:11:18.609Z,33.87
2023-02-14T03:13:52.117Z,33.43
2023-02-14T03:16:22.104Z,32.93
2023-02-14T03:19:44.960Z,34.53
2023-02-14T03:22:41.044Z,34.70
2023-02-14T03:25:21.471Z,36.73
2023-02-14T03:28:22.075Z,33.97
2023-02-14T03:31:03.001Z,36.30
2023-02-14T03:34:07.471Z,39.50
2023-02-14T03:37:25.551Z,39.33
2023-02-14T03:40:01.286Z,41.83
2023-02-14T03:42:35.234Z,38.03
2023-02-14T03:45:06.226Z,44.00
2023-02-14T03:47:36.158Z,43.03
2023-02-14T03:50:11.909Z,40.60
2023-02-14T03:52:41.137Z,46.47
2023-02-14T03:55:09.872Z,45.87
2023-02-14T03:57:52.322Z,44.93
2023-02-14T04:00:19.936Z,53.93
2023-02-14T04:02:50.961Z,51.73
2023-02-14T04:05:21.541Z,49.30
2023-02-14T04:07:51.994Z,49.83
2023-02-14T04:10:19.946Z,49.40
2023-02-14T04:12:47.460Z,50.83
2023-02-14T04:15:17.229Z,53.17
2023-02-14T04:18:03.227Z,51.50
2023-02-14T04:20:30.623Z,45.70
2023-02-14T04:22:57.677Z,49.90
2023-02-14T04:25:24.383Z,47.33
2023-02-14T04:27:51.167Z,45.33
2023-02-14T04:30:18.470Z,49.60
2023-02-14T04:32:45.302Z,47.40
2023-02-14T04:35:12.291Z,40.10
2023-02-14T04:37:39.495Z,39.73
2023-02-14T04:40:06.942Z,44.53
2023-02-14T04:42:33.963Z,45.63
2023-02-14T04:45:03.137Z,43.10
2023-02-14T04:47:30.821Z,42.67
2023-02-14T04:49:57.623Z,45.73
2023-02-14T04:52:24.565Z,40.93
2023-02-14T04:54:51.237Z,46.20
2023-02-14T04:57:18.457Z,44.27
2023-02-14T04:59:45.162Z,47.33
2023-02-14T05:02:12.013Z,39.80
2023-02-14T05:04:39.499Z,48.80
2023-02-14T05:07:06.307Z,43.83
2023-02-14T05:09:33.142Z,45.93
2023-02-14T05:11:59.837Z,39.07
2023-02-14T05:14:26.723Z,44.23
2023-02-14T05:16:53.571Z,44.97
2023-02-14T05:19:20.313Z,45.83
2023-02-14T05:21:47.178Z,46.23
2023-02-14T05:24:13.880Z,45.83
2023-02-14T05:26:41.104Z,48.57
2023-02-14T05:29:08.176Z,47.33
2023-02-14T05:31:35.095Z,48.87
2023-02-14T05:34:01.988Z,51.10
2023-02-14T05:36:28.826Z,45.77
2023-02-14T05:38:55.563Z,53.23
2023-02-14T05:41:24.039Z,47.43
2023-02-14T05:43:51.089Z,43.13
2023-02-14T05:46:18.969Z,48.27
2023-02-14T05:48:46.485Z,54.03
2023-02-14T05:51:13.931Z,60.00
2023-02-14T05:53:40.907Z,53.10
2023-02-14T05:56:08.036Z,53.07
2023-02-14T05:58:34.829Z,52.43
2023-02-14T06:01:02.069Z,54.10
2023-02-14T06:03:28.999Z,53.60
2023-02-14T06:05:55.769Z,52.57
2023-02-14T06:08:22.764Z,48.50
2023-02-14T06:10:49.552Z,51.10
2023-02-14T06:13:16.271Z,52.83
2023-02-14T06:15:43.086Z,54.47
2023-02-14T06:18:09.950Z,50.57
2023-02-14T06:20:36.885Z,52.00
2023-02-14T06:23:03.664Z,55.33
2023-02-14T06:25:30.552Z,57.43
2023-02-14T06:27:58.734Z,57.37
2023-02-14T06:30:25.917Z,58.80
2023-02-14T06:32:53.177Z,58.27
2023-02-14T06:35:21.355Z,51.80
2023-02-14T06:37:48.364Z,58.97
2023-02-14T06:40:15.173Z,47.03
2023-02-14T06:42:41.932Z,53.43
2023-02-14T06:45:09.320Z,53.97
2023-02-14T06:47:36.128Z,54.77
2023-02-14T06:50:05.170Z,53.80
2023-02-14T06:52:33.255Z,54.97
2023-02-14T06:55:00.100Z,53.60
2023-02-14T06:57:27.036Z,58.43
2023-02-14T06:59:54.031Z,55.70
2023-02-14T07:02:22.824Z,55.50
2023-02-14T07:04:51.136Z,53.70
2023-02-14T07:07:17.905Z,57.03
2023-02-14T07:09:44.808Z,54.47
2023-02-14T07:12:11.598Z,64.93
2023-02-14T07:14:38.372Z,59.87
2023-02-14T07:17:05.176Z,57.07
2023-02-14T07:19:31.928Z,55.80
2023-02-14T07:21:58.636Z,52.73
2023-02-14T07:24:25.527Z,58.03
2023-02-14T07:26:52.387Z,53.20
2023-02-14T07:29:19.160Z,54.97
2023-02-14T07:31:46.048Z,57.37
2023-02-14T07:34:13.012Z,61.10
2023-02-14T07:36:39.886Z,55.73
2023-02-14T07:39:06.692Z,53.17
2023-02-14T07:41:33.560Z,55.23
2023-02-14T07:44:00.310Z,51.57
2023-02-14T07:46:27.183Z,53.30
2023-02-14T07:48:54.103Z,49.80
2023-02-14T07:51:20.923Z,60.17
2023-02-14T07:53:48.472Z,52.07
2023-02-14T07:56:15.245Z,51.53
2023-02-14T07:58:42.076Z,52.67
2023-02-14T08:01:08.953Z,58.07
2023-02-14T08:03:35.669Z,52.13
2023-02-14T08:06:02.430Z,55.10
2023-02-14T08:08:30.963Z,55.93
2023-02-14T08:10:58.432Z,56.30
2023-02-14T08:13:26.062Z,57.10
2023-02-14T08:16:05.414Z,58.23
2023-02-14T08:18:35.638Z,56.37
2023-02-14T08:21:02.947Z,56.03
2023-02-14T08:23:29.951Z,61.80
2023-02-14T08:25:57.115Z,59.83
2023-02-14T08:28:24.132Z,56.27
2023-02-14T08:30:51.523Z,56.40
2023-02-14T08:33:18.966Z,51.50
2023-02-14T08:35:45.901Z,54.27
2023-02-14T08:38:12.929Z,54.03
2023-02-14T08:40:39.792Z,55.93
2023-02-14T08:43:07.458Z,55.50
2023-02-14T08:45:34.761Z,51.30
2023-02-14T08:48:10.251Z,56.73
2023-02-14T08:50:38.139Z,52.83
2023-02-14T08:53:09.603Z,58.67
2023-02-14T08:55:36.907Z,60.53
2023-02-14T08:58:04.134Z,57.63
2023-02-14T09:00:32.331Z,58.57
2023-02-14T09:02:59.740Z,56.50
2023-02-14T09:05:27.006Z,52.17
2023-02-14T09:07:56.432Z,53.53
2023-02-14T09:10:24.793Z,58.73
2023-02-14T09:12:52.063Z,57.30
2023-02-14T09:15:19.031Z,55.30
2023-02-14T09:17:46.648Z,57.27
2023-02-14T09:20:15.517Z,57.50
2023-02-14T09:22:42.347Z,53.33
2023-02-14T09:25:09.867Z,54.53
2023-02-14T09:27:36.998Z,54.53
2023-02-14T09:30:05.974Z,55.47
2023-02-14T09:32:32.939Z,57.17
2023-02-14T09:35:00.312Z,59.43
2023-02-14T09:37:27.127Z,62.53
2023-02-14T09:39:53.831Z,56.20
2023-02-14T09:42:49.357Z,58.10
2023-02-14T09:45:21.560Z,57.47
2023-02-14T09:47:57.378Z,57.47
2023-02-14T09:50:30.343Z,51.53
2023-02-14T09:53:00.998Z,65.33
2023-02-14T09:55:37.283Z,54.83
2023-02-14T09:58:17.585Z,52.70
2023-02-14T10:01:00.493Z,54.93
2023-02-14T10:03:49.293Z,56.37
2023-02-14T10:06:40.655Z,59.17
2023-02-14T10:09:39.237Z,51.17
2023-02-14T10:12:14.456Z,50.90
2023-02-14T10:14:41.461Z,52.00
2023-02-14T10:17:14.334Z,53.57
2023-02-14T10:19:48.406Z,56.07
2023-02-14T10:22:18.472Z,57.33
2023-02-14T10:25:06.756Z,55.50
2023-02-14T10:27:33.435Z,49.83
2023-02-14T10:30:00.460Z,52.93
2023-02-14T10:32:51.495Z,58.60
2023-02-14T10:35:43.184Z,52.30
2023-02-14T10:38:30.179Z,60.37
2023-02-14T10:41:15.533Z,53.80
2023-02-14T10:44:00.735Z,50.47
2023-02-14T10:46:33.371Z,57.67
2023-02-14T10:49:00.041Z,52.60
2023-02-14T10:51:35.985Z,57.73
2023-02-14T10:54:22.963Z,57.27
2023-02-14T10:57:00.544Z,63.10
2023-02-14T10:59:42.636Z,55.87
2023-02-14T11:02:14.395Z,57.27
2023-02-14T11:04:42.238Z,56.77
2023-02-14T11:07:17.342Z,58.80
2023-02-14T11:09:44.423Z,53.87
2023-02-14T11:12:11.353Z,60.77
2023-02-14T11:14:40.044Z,59.60
2023-02-14T11:17:30.995Z,58.90
2023-02-14T11:20:06.438Z,58.90
2023-02-14T11:22:35.274Z,66.30
2023-02-14T11:25:08.406Z,58.30
2023-02-14T11:27:37.938Z,59.87
2023-02-14T11:30:18.771Z,58.50
2023-02-14T11:32:55.174Z,58.77
2023-02-14T11:35:27.550Z,56.17
2023-02-14T11:37:56.678Z,63.63
2023-02-14T11:40:38.415Z,59.30
2023-02-14T11:43:14.300Z,61.47
2023-02-14T11:45:43.649Z,59.70
2023-02-14T11:48:36.826Z,63.57
2023-02-14T11:51:11.128Z,61.37
2023-02-14T11:53:40.837Z,57.63
2023-02-14T11:56:07.650Z,71.23
2023-02-14T11:58:37.565Z,65.67
2023-02-14T12:01:05.340Z,67.77
2023-02-14T12:03:45.153Z,56.20
2023-02-14T12:06:13.701Z,58.27
2023-02-14T12:08:42.055Z,61.37
2023-02-14T12:11:19.333Z,60.13
2023-02-14T12:13:53.836Z,59.97
2023-02-14T12:16:29.165Z,58.50
2023-02-14T12:19:17.459Z,62.43
2023-02-14T12:21:55.278Z,62.53
2023-02-14T12:24:30.827Z,61.90
2023-02-14T12:27:04.704Z,57.97
2023-02-14T12:29:44.924Z,64.33
2023-02-14T12:32:32.761Z,65.00
2023-02-14T12:35:22.132Z,67.50
2023-02-14T12:38:09.388Z,69.63
2023-02-14T12:41:11.047Z,66.57
2023-02-14T12:43:52.611Z,64.63
2023-02-14T12:46:41.368Z,64.67
2023-02-14T12:49:26.220Z,61.80
2023-02-14T12:52:38.927Z,69.73
2023-02-14T12:55:35.103Z,68.63
2023-02-14T12:58:30.664Z,66.10
2023-02-14T13:01:32.872Z,65.90
2023-02-14T13:04:08.999Z,61.43
2023-02-14T13:06:48.101Z,69.70
2023-02-14T13:09:18.988Z,61.07
2023-02-14T13:12:16.171Z,69.53
2023-02-14T13:15:08.608Z,62.30
2023-02-14T13:17:53.033Z,69.67
2023-02-14T13:20:44.750Z,67.27
2023-02-14T13:23:31.618Z,64.23
2023-02-14T13:26:27.266Z,69.60
2023-02-14T13:29:12.330Z,67.17
2023-02-14T13:31:47.131Z,65.37
2023-02-14T13:34:39.183Z,61.20
2023-02-14T13:37:11.999Z,62.90
2023-02-14T13:39:52.819Z,60.13
2023-02-14T13:42:49.568Z,58.77
2023-02-14T13:45:41.663Z,58.13
2023-02-14T13:48:17.812Z,64.70
2023-02-14T13:51:04.941Z,58.33
2023-02-14T13:53:45.880Z,58.87
2023-02-14T13:56:14.107Z,62.97
2023-02-14T13:59:11.218Z,62.53
2023-02-14T14:01:51.094Z,66.90
2023-02-14T14:04:28.925Z,61.73
2023-02-14T14:07:25.327Z,66.57
2023-02-14T14:12:43.299Z,65.30
2023-02-14T14:15:18.319Z,61.67
2023-02-14T14:18:07.831Z,63.40
2023-02-14T14:20:45.162Z,64.90
2023-02-14T14:23:34.303Z,65.03
2023-02-14T14:29:28.748Z,58.73
2023-02-14T14:32:03.033Z,60.10
2023-02-14T14:34:35.115Z,59.80
2023-02-14T14:37:30.553Z,62.23
2023-02-14T14:40:49.240Z,56.03
2023-02-14T14:43:39.870Z,55.60
2023-02-14T14:46:11.385Z,60.87
2023-02-14T14:48:43.121Z,54.10
2023-02-14T14:51:22.581Z,61.50
2023-02-14T14:53:57.306Z,51.73
2023-02-14T14:56:27.229Z,59.27
2023-02-14T14:58:54.531Z,54.67
2023-02-14T15:01:48.536Z,55.03
2023-02-14T15:04:19.530Z,57.57
2023-02-14T15:06:47.412Z,51.63
2023-02-14T15:09:31.481Z,48.10
2023-02-14T15:12:21.227Z,53.20
2023-02-14T15:14:54.791Z,52.87
2023-02-14T15:17:25.877Z,49.10
2023-02-14T15:20:00.589Z,58.70
2023-02-14T15:22:30.259Z,49.17
2023-02-14T15:24:58.099Z,54.43
2023-02-14T15:27:27.090Z,64.57
2023-02-14T15:30:01.960Z,55.80
2023-02-14T15:32:32.850Z,54.47
2023-02-14T15:35:03.227Z,58.97
2023-02-14T15:37:30.435Z,52.63
2023-02-14T15:39:58.353Z,56.53
2023-02-14T15:42:29.861Z,59.03
2023-02-14T15:45:27.900Z,56.17
2023-02-14T15:48:05.404Z,58.03
2023-02-14T15:50:42.948Z,55.97
2023-02-14T15:53:29.321Z,57.70
2023-02-14T15:56:03.838Z,53.40
2023-02-14T15:58:32.594Z,58.33
2023-02-14T16:01:00.177Z,57.43
2023-02-14T16:03:30.798Z,58.83
2023-02-14T16:05:57.624Z,80.60
2023-02-14T16:08:41.130Z,71.00
2023-02-14T16:11:26.423Z,65.10
2023-02-14T16:13:53.594Z,91.03
2023-02-14T16:16:20.282Z,65.30
2023-02-14T16:18:53.271Z,68.53
2023-02-14T16:21:28.638Z,71.23
2023-02-14T16:24:15.788Z,76.10
2023-02-14T16:26:44.525Z,68.07
2023-02-14T16:29:13.189Z,65.10
2023-02-14T16:34:41.928Z,66.13
2023-02-14T16:37:22.161Z,68.30
2023-02-14T16:39:51.784Z,66.60
2023-02-14T16:42:18.971Z,68.47
2023-02-14T16:44:47.009Z,75.17
2023-02-14T16:47:15.271Z,72.57
2023-02-14T16:49:42.228Z,70.43
2023-02-14T16:52:23.782Z,76.57
2023-02-14T16:54:50.950Z,72.27
2023-02-14T16:57:27.713Z,76.30
2023-02-14T16:59:56.206Z,74.90
2023-02-14T17:02:23.047Z,75.97
2023-02-14T17:04:49.821Z,69.07
2023-02-14T17:07:16.677Z,76.93
2023-02-14T17:09:48.357Z,81.13
2023-02-14T17:12:20.828Z,80.93
2023-02-14T17:14:51.475Z,76.00
2023-02-14T17:17:18.331Z,73.80
2023-02-14T17:19:45.206Z,69.17
2023-02-14T17:22:13.567Z,72.97
2023-02-14T17:24:41.109Z,78.80
2023-02-14T17:27:08.736Z,74.37
2023-02-14T17:29:35.639Z,81.93
2023-02-14T17:32:02.580Z,74.87
2023-02-14T17:34:33.363Z,69.63
2023-02-14T17:37:00.106Z,69.53
2023-02-14T17:39:26.867Z,68.60
2023-02-14T17:41:53.572Z,69.77
2023-02-14T17:44:20.960Z,77.80
2023-02-14T17:46:47.764Z,75.53
2023-02-14T17:49:14.618Z,88.47
2023-02-14T17:51:41.502Z,70.50
2023-02-14T17:54:08.217Z,76.97
2023-02-14T17:56:34.970Z,72.43
2023-02-14T17:59:01.611Z,81.23
2023-02-14T18:01:31.612Z,78.60
2023-02-14T18:03:58.671Z,77.40
2023-02-14T18:06:26.721Z,75.27
2023-02-14T18:08:56.759Z,80.83
2023-02-14T18:11:26.162Z,83.77
2023-02-14T18:13:58.146Z,76.80
2023-02-14T18:16:25.417Z,81.57
2023-02-14T18:18:52.370Z,80.00
2023-02-14T18:21:24.472Z,75.83
2023-02-14T18:23:51.947Z,68.73
2023-02-14T18:26:19.658Z,82.03
2023-02-14T18:28:46.353Z,85.57
2023-02-14T18:31:16.399Z,76.77
2023-02-14T18:33:43.904Z,75.37
2023-02-14T18:36:14.110Z,71.03
2023-02-14T18:38:42.520Z,78.03
2023-02-14T18:41:15.193Z,108.40
2023-02-14T18:43:42.414Z,101.30
2023-02-14T18:46:21.992Z,85.87
2023-02-14T18:48:49.368Z,78.67
2023-02-14T18:51:19.496Z,83.37
2023-02-14T18:53:47.510Z,70.10
2023-02-14T18:56:17.177Z,77.83
2023-02-14T18:58:47.642Z,82.57
2023-02-14T19:01:22.693Z,84.07
2023-02-14T19:03:50.893Z,81.43
2023-02-14T19:06:18.182Z,71.13
2023-02-14T19:08:45.403Z,69.40
2023-02-14T19:11:14.404Z,81.47
2023-02-14T19:13:45.937Z,70.87
2023-02-14T19:16:15.096Z,74.27
2023-02-14T19:18:41.883Z,77.00
2023-02-14T19:21:16.168Z,79.17
2023-02-14T19:23:43.457Z,78.87
2023-02-14T19:26:14.753Z,65.40
2023-02-14T19:28:43.289Z,77.77
2023-02-14T19:31:10.590Z,68.97
2023-02-14T19:33:42.930Z,72.67
2023-02-14T19:36:14.461Z,67.90
2023-02-14T19:38:42.680Z,74.33
2023-02-14T19:41:39.594Z,74.83
2023-02-14T19:44:09.414Z,82.00
2023-02-14T19:46:38.246Z,75.00
2023-02-14T19:49:05.310Z,77.43
2023-02-14T19:51:35.920Z,74.03
2023-02-14T19:54:05.744Z,70.03
2023-02-14T19:56:34.708Z,72.97
2023-02-14T19:59:07.690Z,78.77
2023-02-14T20:01:42.255Z,74.67
2023-02-14T20:04:12.116Z,77.07
2023-02-14T20:06:38.811Z,80.70
2023-02-14T20:09:06.638Z,71.93
2023-02-14T20:11:50.893Z,74.07
2023-02-14T20:14:29.411Z,59.77
2023-02-14T20:16:57.819Z,72.67
2023-02-14T20:19:27.782Z,62.50
2023-02-14T20:21:55.108Z,73.87
2023-02-14T20:24:32.184Z,74.90
2023-02-14T20:27:00.530Z,72.97
2023-02-14T20:29:27.473Z,65.30
2023-02-14T20:32:01.479Z,62.17
2023-02-14T20:34:28.520Z,75.10
2023-02-14T20:36:56.139Z,71.33
2023-02-14T20:39:30.906Z,71.83
2023-02-14T20:41:57.893Z,77.47
2023-02-14T20:44:24.755Z,78.23
2023-02-14T20:46:53.826Z,72.30
2023-02-14T20:49:22.145Z,68.70
2023-02-14T20:51:49.836Z,73.53
2023-02-14T20:54:20.693Z,74.20
2023-02-14T20:56:48.318Z,74.07
2023-02-14T20:59:15.114Z,71.30
2023-02-14T21:01:41.832Z,78.20
2023-02-14T21:04:08.642Z,74.03
2023-02-14T21:06:36.051Z,78.47
2023-02-14T21:09:04.235Z,74.80
2023-02-14T21:11:31.053Z,82.03
2023-02-14T21:14:00.164Z,71.80
2023-02-14T21:16:28.576Z,78.73
2023-02-14T21:18:59.268Z,75.17
2023-02-14T21:21:36.139Z,69.97
2023-02-14T21:24:08.780Z,72.53
2023-02-14T21:26:36.120Z,64.27
2023-02-14T21:29:03.063Z,68.60
2023-02-14T21:31:29.913Z,69.30
2023-02-14T21:33:58.860Z,65.90
2023-02-14T21:36:28.322Z,58.47
2023-02-14T21:38:58.258Z,61.97
2023-02-14T21:41:27.676Z,62.80
2023-02-14T21:43:56.468Z,64.63
2023-02-14T21:46:27.449Z,66.83
2023-02-14T21:49:13.866Z,73.07
2023-02-14T21:51:41.491Z,73.13
2023-02-14T21:54:09.388Z,70.73
2023-02-14T21:56:37.197Z,63.90
2023-02-14T21:59:04.569Z,74.33
2023-02-14T22:01:34.162Z,71.50
2023-02-14T22:04:01.646Z,68.63
2023-02-14T22:06:28.680Z,75.60
2023-02-14T22:08:57.129Z,74.03
2023-02-14T22:11:26.577Z,70.00
2023-02-14T22:13:53.442Z,68.83
2023-02-14T22:16:21.570Z,65.43
2023-02-14T22:18:48.751Z,68.13
2023-02-14T22:21:18.664Z,63.70
2023-02-14T22:23:45.532Z,67.40
2023-02-14T22:26:23.152Z,64.33
2023-02-14T22:28:51.622Z,67.90
2023-02-14T22:31:19.587Z,66.93
2023-02-14T22:33:47.357Z,72.17
2023-02-14T22:36:14.466Z,70.97
2023-02-14T22:38:41.493Z,65.07
2023-02-14T22:41:17.243Z,61.53
2023-02-14T22:43:44.322Z,70.13
2023-02-14T22:46:17.428Z,71.00
2023-02-14T22:48:44.648Z,70.53
2023-02-14T22:51:12.736Z,67.67
2023-02-14T22:53:39.569Z,64.73
2023-02-14T22:56:17.371Z,64.33
2023-02-14T22:58:44.373Z,65.80
2023-02-14T23:01:20.739Z,68.93
2023-02-14T23:03:48.966Z,66.20
2023-02-14T23:06:15.761Z,57.83
2023-02-14T23:08:44.684Z,55.87
2023-02-14T23:11:17.988Z,61.13
2023-02-14T23:14:03.682Z,65.43
2023-02-14T23:16:49.552Z,64.87
2023-02-14T23:19:40.875Z,67.63
2023-02-14T23:22:09.312Z,70.57
2023-02-14T23:24:36.250Z,72.10
2023-02-14T23:27:03.599Z,63.27
2023-02-14T23:29:30.620Z,71.40
2023-02-14T23:31:57.733Z,73.27
2023-02-14T23:34:26.300Z,69.40
2023-02-14T23:36:53.290Z,66.73
2023-02-14T23:39:20.452Z,72.17
2023-02-14T23:41:47.200Z,72.83
2023-02-14T23:44:19.817Z,68.27
2023-02-14T23:46:52.137Z,63.43
2023-02-14T23:49:19.670Z,66.97
2023-02-14T23:51:47.832Z,75.47
2023-02-14T23:54:14.918Z,75.47
2023-02-14T23:56:42.046Z,74.77
2023-02-14T23:59:10.070Z,73.43
